sensor_id;sensor_type;location;lat;lon;timestamp;temperature;humidity
67093;SHT31;54011;50.772;7.730;2023-05-17T00:02:06;14.49;58.90
67093;SHT31;54011;50.772;7.730;2023-05-17T00:04:31;14.45;58.30
67093;SHT31;54011;50.772;7.730;2023-05-17T00:06:58;14.19;59.28
67093;SHT31;54011;50.772;7.730;2023-05-17T00:09:23;14.39;58.07
67093;SHT31;54011;50.772;7.730;2023-05-17T00:11:49;14.02;59.21
67093;SHT31;54011;50.772;7.730;2023-05-17T00:14:14;14.12;59.36
67093;SHT31;54011;50.772;7.730;2023-05-17T00:16:40;14.19;58.74
67093;SHT31;54011;50.772;7.730;2023-05-17T00:19:06;14.18;58.84
67093;SHT31;54011;50.772;7.730;2023-05-17T00:21:33;13.91;59.25
67093;SHT31;54011;50.772;7.730;2023-05-17T00:23:59;14.04;59.39
67093;SHT31;54011;50.772;7.730;2023-05-17T00:26:25;14.05;59.24
67093;SHT31;54011;50.772;7.730;2023-05-17T00:28:50;13.91;59.39
67093;SHT31;54011;50.772;7.730;2023-05-17T00:31:16;14.22;58.69
67093;SHT31;54011;50.772;7.730;2023-05-17T00:33:43;14.06;58.81
67093;SHT31;54011;50.772;7.730;2023-05-17T00:36:08;13.97;59.01
67093;SHT31;54011;50.772;7.730;2023-05-17T00:38:34;14.02;58.85
67093;SHT31;54011;50.772;7.730;2023-05-17T00:41:00;13.61;59.72
67093;SHT31;54011;50.772;7.730;2023-05-17T00:43:26;13.54;59.93
67093;SHT31;54011;50.772;7.730;2023-05-17T00:45:51;13.67;59.44
67093;SHT31;54011;50.772;7.730;2023-05-17T00:48:17;13.70;59.56
67093;SHT31;54011;50.772;7.730;2023-05-17T00:50:46;13.78;59.59
67093;SHT31;54011;50.772;7.730;2023-05-17T00:53:13;13.44;59.94
67093;SHT31;54011;50.772;7.730;2023-05-17T00:55:44;13.17;60.43
67093;SHT31;54011;50.772;7.730;2023-05-17T00:58:10;13.20;61.03
67093;SHT31;54011;50.772;7.730;2023-05-17T01:00:37;13.00;61.32
67093;SHT31;54011;50.772;7.730;2023-05-17T01:03:04;13.27;60.37
67093;SHT31;54011;50.772;7.730;2023-05-17T01:05:29;13.12;60.94
67093;SHT31;54011;50.772;7.730;2023-05-17T01:07:55;13.32;60.60
67093;SHT31;54011;50.772;7.730;2023-05-17T01:13:09;13.28;60.45
67093;SHT31;54011;50.772;7.730;2023-05-17T01:15:42;13.30;60.35
67093;SHT31;54011;50.772;7.730;2023-05-17T01:18:19;13.20;60.49
67093;SHT31;54011;50.772;7.730;2023-05-17T01:20:47;13.27;60.27
67093;SHT31;54011;50.772;7.730;2023-05-17T01:28:19;13.24;60.47
67093;SHT31;54011;50.772;7.730;2023-05-17T01:30:46;12.97;60.88
67093;SHT31;54011;50.772;7.730;2023-05-17T01:33:12;13.17;60.41
67093;SHT31;54011;50.772;7.730;2023-05-17T01:35:40;12.79;61.14
67093;SHT31;54011;50.772;7.730;2023-05-17T01:38:05;12.65;62.09
67093;SHT31;54011;50.772;7.730;2023-05-17T01:40:33;12.59;62.02
67093;SHT31;54011;50.772;7.730;2023-05-17T01:46:23;12.57;62.26
67093;SHT31;54011;50.772;7.730;2023-05-17T01:49:15;12.30;62.53
67093;SHT31;54011;50.772;7.730;2023-05-17T01:51:46;12.26;62.52
67093;SHT31;54011;50.772;7.730;2023-05-17T01:54:13;12.45;62.22
67093;SHT31;54011;50.772;7.730;2023-05-17T01:56:47;12.12;62.53
67093;SHT31;54011;50.772;7.730;2023-05-17T01:59:14;11.93;63.42
67093;SHT31;54011;50.772;7.730;2023-05-17T02:01:43;12.18;62.37
67093;SHT31;54011;50.772;7.730;2023-05-17T02:04:10;12.17;62.53
67093;SHT31;54011;50.772;7.730;2023-05-17T02:06:37;12.20;62.20
67093;SHT31;54011;50.772;7.730;2023-05-17T02:09:02;12.14;62.35
67093;SHT31;54011;50.772;7.730;2023-05-17T02:11:28;11.66;63.38
67093;SHT31;54011;50.772;7.730;2023-05-17T02:13:53;11.46;64.78
67093;SHT31;54011;50.772;7.730;2023-05-17T02:16:19;11.54;63.63
67093;SHT31;54011;50.772;7.730;2023-05-17T02:18:45;11.61;64.18
67093;SHT31;54011;50.772;7.730;2023-05-17T02:21:11;11.76;63.78
67093;SHT31;54011;50.772;7.730;2023-05-17T02:23:37;12.03;63.35
67093;SHT31;54011;50.772;7.730;2023-05-17T02:26:03;12.33;62.05
67093;SHT31;54011;50.772;7.730;2023-05-17T02:28:32;11.79;63.67
67093;SHT31;54011;50.772;7.730;2023-05-17T02:31:03;11.98;63.87
67093;SHT31;54011;50.772;7.730;2023-05-17T02:33:29;11.97;63.52
67093;SHT31;54011;50.772;7.730;2023-05-17T02:35:55;11.85;63.49
67093;SHT31;54011;50.772;7.730;2023-05-17T02:38:20;11.72;64.05
67093;SHT31;54011;50.772;7.730;2023-05-17T02:40:46;11.93;63.14
67093;SHT31;54011;50.772;7.730;2023-05-17T02:43:12;11.79;63.60
67093;SHT31;54011;50.772;7.730;2023-05-17T02:45:37;11.93;63.15
67093;SHT31;54011;50.772;7.730;2023-05-17T02:48:04;11.66;63.69
67093;SHT31;54011;50.772;7.730;2023-05-17T02:50:30;11.48;63.96
67093;SHT31;54011;50.772;7.730;2023-05-17T02:52:56;11.15;64.61
67093;SHT31;54011;50.772;7.730;2023-05-17T02:55:22;11.27;64.11
67093;SHT31;54011;50.772;7.730;2023-05-17T02:57:48;11.14;65.03
67093;SHT31;54011;50.772;7.730;2023-05-17T03:00:14;11.17;64.46
67093;SHT31;54011;50.772;7.730;2023-05-17T03:02:41;11.03;65.39
67093;SHT31;54011;50.772;7.730;2023-05-17T03:05:07;11.29;65.27
67093;SHT31;54011;50.772;7.730;2023-05-17T03:07:36;11.40;63.83
67093;SHT31;54011;50.772;7.730;2023-05-17T03:10:02;11.67;63.94
67093;SHT31;54011;50.772;7.730;2023-05-17T03:12:34;11.67;64.38
67093;SHT31;54011;50.772;7.730;2023-05-17T03:14:59;11.67;64.08
67093;SHT31;54011;50.772;7.730;2023-05-17T03:17:25;11.66;64.13
67093;SHT31;54011;50.772;7.730;2023-05-17T03:19:50;11.46;64.47
67093;SHT31;54011;50.772;7.730;2023-05-17T03:22:16;11.58;63.72
67093;SHT31;54011;50.772;7.730;2023-05-17T03:24:42;11.52;63.90
67093;SHT31;54011;50.772;7.730;2023-05-17T03:27:09;11.35;64.23
67093;SHT31;54011;50.772;7.730;2023-05-17T03:29:35;11.62;63.65
67093;SHT31;54011;50.772;7.730;2023-05-17T03:32:00;11.72;63.50
67093;SHT31;54011;50.772;7.730;2023-05-17T03:34:26;11.59;63.81
67093;SHT31;54011;50.772;7.730;2023-05-17T03:36:53;11.56;63.71
67093;SHT31;54011;50.772;7.730;2023-05-17T03:39:18;11.56;63.87
67093;SHT31;54011;50.772;7.730;2023-05-17T03:41:46;11.63;63.92
67093;SHT31;54011;50.772;7.730;2023-05-17T03:44:13;11.40;64.72
67093;SHT31;54011;50.772;7.730;2023-05-17T03:46:38;11.34;64.41
67093;SHT31;54011;50.772;7.730;2023-05-17T03:49:04;11.04;64.88
67093;SHT31;54011;50.772;7.730;2023-05-17T03:51:31;10.64;65.33
67093;SHT31;54011;50.772;7.730;2023-05-17T03:53:59;10.64;64.79
67093;SHT31;54011;50.772;7.730;2023-05-17T03:56:26;10.33;65.71
67093;SHT31;54011;50.772;7.730;2023-05-17T03:58:52;10.46;65.48
67093;SHT31;54011;50.772;7.730;2023-05-17T04:01:18;10.39;65.36
67093;SHT31;54011;50.772;7.730;2023-05-17T04:03:46;10.32;65.44
67093;SHT31;54011;50.772;7.730;2023-05-17T04:06:12;10.30;65.83
67093;SHT31;54011;50.772;7.730;2023-05-17T04:08:42;10.57;65.43
67093;SHT31;54011;50.772;7.730;2023-05-17T04:11:07;10.93;64.85
67093;SHT31;54011;50.772;7.730;2023-05-17T04:13:41;11.19;65.12
67093;SHT31;54011;50.772;7.730;2023-05-17T04:16:10;11.69;64.34
67093;SHT31;54011;50.772;7.730;2023-05-17T04:18:37;11.63;64.78
67093;SHT31;54011;50.772;7.730;2023-05-17T04:21:04;11.79;64.25
67093;SHT31;54011;50.772;7.730;2023-05-17T04:23:33;11.61;64.60
67093;SHT31;54011;50.772;7.730;2023-05-17T04:25:59;11.91;64.59
67093;SHT31;54011;50.772;7.730;2023-05-17T04:28:26;11.65;64.80
67093;SHT31;54011;50.772;7.730;2023-05-17T04:30:52;11.56;65.76
67093;SHT31;54011;50.772;7.730;2023-05-17T04:33:18;11.87;64.72
67093;SHT31;54011;50.772;7.730;2023-05-17T04:35:44;12.20;64.04
67093;SHT31;54011;50.772;7.730;2023-05-17T04:38:11;12.34;64.03
67093;SHT31;54011;50.772;7.730;2023-05-17T04:40:38;12.37;64.36
67093;SHT31;54011;50.772;7.730;2023-05-17T04:43:04;12.72;63.84
67093;SHT31;54011;50.772;7.730;2023-05-17T04:45:30;12.54;64.34
67093;SHT31;54011;50.772;7.730;2023-05-17T04:47:58;12.55;64.55
67093;SHT31;54011;50.772;7.730;2023-05-17T04:50:25;12.52;64.53
67093;SHT31;54011;50.772;7.730;2023-05-17T04:52:51;12.45;65.02
67093;SHT31;54011;50.772;7.730;2023-05-17T04:55:16;12.30;64.92
67093;SHT31;54011;50.772;7.730;2023-05-17T04:57:42;12.28;65.03
67093;SHT31;54011;50.772;7.730;2023-05-17T05:00:11;11.94;65.72
67093;SHT31;54011;50.772;7.730;2023-05-17T05:02:40;11.87;64.98
67093;SHT31;54011;50.772;7.730;2023-05-17T05:05:07;12.28;64.70
67093;SHT31;54011;50.772;7.730;2023-05-17T05:07:38;11.96;64.90
67093;SHT31;54011;50.772;7.730;2023-05-17T05:10:05;12.28;64.69
67093;SHT31;54011;50.772;7.730;2023-05-17T05:12:31;12.35;64.37
67093;SHT31;54011;50.772;7.730;2023-05-17T05:14:57;11.80;65.44
67093;SHT31;54011;50.772;7.730;2023-05-17T05:17:23;12.44;65.18
67093;SHT31;54011;50.772;7.730;2023-05-17T05:19:49;12.31;65.32
67093;SHT31;54011;50.772;7.730;2023-05-17T05:22:14;12.59;65.41
67093;SHT31;54011;50.772;7.730;2023-05-17T05:24:40;12.26;65.04
67093;SHT31;54011;50.772;7.730;2023-05-17T05:27:06;12.61;65.21
67093;SHT31;54011;50.772;7.730;2023-05-17T05:29:31;12.65;64.86
67093;SHT31;54011;50.772;7.730;2023-05-17T05:31:58;12.79;65.01
67093;SHT31;54011;50.772;7.730;2023-05-17T05:34:24;12.20;67.03
67093;SHT31;54011;50.772;7.730;2023-05-17T05:36:49;11.89;67.97
67093;SHT31;54011;50.772;7.730;2023-05-17T05:39:15;12.52;65.94
67093;SHT31;54011;50.772;7.730;2023-05-17T05:41:42;13.10;64.94
67093;SHT31;54011;50.772;7.730;2023-05-17T05:44:08;12.91;66.14
67093;SHT31;54011;50.772;7.730;2023-05-17T05:46:33;12.45;66.48
67093;SHT31;54011;50.772;7.730;2023-05-17T05:49:01;13.39;65.16
67093;SHT31;54011;50.772;7.730;2023-05-17T05:51:27;13.63;64.36
67093;SHT31;54011;50.772;7.730;2023-05-17T05:53:53;13.36;64.73
67093;SHT31;54011;50.772;7.730;2023-05-17T05:56:19;13.87;64.07
67093;SHT31;54011;50.772;7.730;2023-05-17T05:58:44;13.43;65.01
67093;SHT31;54011;50.772;7.730;2023-05-17T06:01:10;13.47;65.11
67093;SHT31;54011;50.772;7.730;2023-05-17T06:03:36;13.53;65.27
67093;SHT31;54011;50.772;7.730;2023-05-17T06:06:01;13.26;66.12
67093;SHT31;54011;50.772;7.730;2023-05-17T06:08:27;13.34;66.09
67093;SHT31;54011;50.772;7.730;2023-05-17T06:10:52;13.09;67.45
67093;SHT31;54011;50.772;7.730;2023-05-17T06:13:18;13.82;65.73
67093;SHT31;54011;50.772;7.730;2023-05-17T06:15:43;14.22;65.01
67093;SHT31;54011;50.772;7.730;2023-05-17T06:18:09;13.95;65.46
67093;SHT31;54011;50.772;7.730;2023-05-17T06:20:35;14.08;65.86
67093;SHT31;54011;50.772;7.730;2023-05-17T06:23:00;14.05;66.13
67093;SHT31;54011;50.772;7.730;2023-05-17T06:25:26;14.05;65.44
67093;SHT31;54011;50.772;7.730;2023-05-17T06:27:51;14.21;65.85
67093;SHT31;54011;50.772;7.730;2023-05-17T06:30:17;13.44;68.47
67093;SHT31;54011;50.772;7.730;2023-05-17T06:32:43;13.65;67.27
67093;SHT31;54011;50.772;7.730;2023-05-17T06:35:09;13.61;67.07
67093;SHT31;54011;50.772;7.730;2023-05-17T06:37:35;14.22;66.35
67093;SHT31;54011;50.772;7.730;2023-05-17T06:40:02;13.88;67.44
67093;SHT31;54011;50.772;7.730;2023-05-17T06:42:29;14.36;66.43
67093;SHT31;54011;50.772;7.730;2023-05-17T06:44:55;15.00;64.46
67093;SHT31;54011;50.772;7.730;2023-05-17T06:47:20;15.67;62.95
67093;SHT31;54011;50.772;7.730;2023-05-17T06:49:46;15.15;63.94
67093;SHT31;54011;50.772;7.730;2023-05-17T06:52:11;15.20;63.38
67093;SHT31;54011;50.772;7.730;2023-05-17T06:54:37;13.13;67.66
67093;SHT31;54011;50.772;7.730;2023-05-17T06:57:03;14.98;64.83
67093;SHT31;54011;50.772;7.730;2023-05-17T06:59:28;15.44;63.31
67093;SHT31;54011;50.772;7.730;2023-05-17T07:01:54;15.54;62.37
67093;SHT31;54011;50.772;7.730;2023-05-17T07:04:20;15.52;63.24
67093;SHT31;54011;50.772;7.730;2023-05-17T07:06:46;16.02;63.03
67093;SHT31;54011;50.772;7.730;2023-05-17T07:09:12;15.87;61.70
67093;SHT31;54011;50.772;7.730;2023-05-17T07:11:37;16.45;59.30
67093;SHT31;54011;50.772;7.730;2023-05-17T07:14:03;16.99;57.62
67093;SHT31;54011;50.772;7.730;2023-05-17T07:16:29;16.58;57.55
67093;SHT31;54011;50.772;7.730;2023-05-17T07:18:54;16.98;56.01
67093;SHT31;54011;50.772;7.730;2023-05-17T07:21:20;16.84;56.39
67093;SHT31;54011;50.772;7.730;2023-05-17T07:23:49;17.13;53.96
67093;SHT31;54011;50.772;7.730;2023-05-17T07:26:17;17.13;53.65
67093;SHT31;54011;50.772;7.730;2023-05-17T07:28:43;16.69;54.15
67093;SHT31;54011;50.772;7.730;2023-05-17T07:31:09;16.82;52.91
67093;SHT31;54011;50.772;7.730;2023-05-17T07:33:36;16.20;54.11
67093;SHT31;54011;50.772;7.730;2023-05-17T07:36:01;16.71;53.72
67093;SHT31;54011;50.772;7.730;2023-05-17T07:38:27;17.16;51.93
67093;SHT31;54011;50.772;7.730;2023-05-17T07:40:52;17.02;51.71
67093;SHT31;54011;50.772;7.730;2023-05-17T07:43:18;16.48;51.17
67093;SHT31;54011;50.772;7.730;2023-05-17T07:45:44;16.67;50.96
67093;SHT31;54011;50.772;7.730;2023-05-17T07:48:10;16.89;50.79
67093;SHT31;54011;50.772;7.730;2023-05-17T07:50:36;17.13;51.61
67093;SHT31;54011;50.772;7.730;2023-05-17T07:53:01;16.51;51.82
67093;SHT31;54011;50.772;7.730;2023-05-17T07:55:27;16.75;50.47
67093;SHT31;54011;50.772;7.730;2023-05-17T07:57:52;17.20;49.89
67093;SHT31;54011;50.772;7.730;2023-05-17T08:00:18;16.24;50.13
67093;SHT31;54011;50.772;7.730;2023-05-17T08:02:44;16.95;48.88
67093;SHT31;54011;50.772;7.730;2023-05-17T08:05:10;16.17;51.05
67093;SHT31;54011;50.772;7.730;2023-05-17T08:07:36;16.57;49.67
67093;SHT31;54011;50.772;7.730;2023-05-17T08:10:02;17.63;49.41
67093;SHT31;54011;50.772;7.730;2023-05-17T08:12:28;17.05;49.30
67093;SHT31;54011;50.772;7.730;2023-05-17T08:14:53;18.09;47.55
67093;SHT31;54011;50.772;7.730;2023-05-17T08:17:19;17.44;47.24
67093;SHT31;54011;50.772;7.730;2023-05-17T08:19:46;17.30;48.26
67093;SHT31;54011;50.772;7.730;2023-05-17T08:22:12;16.99;48.02
67093;SHT31;54011;50.772;7.730;2023-05-17T08:24:38;16.38;48.98
67093;SHT31;54011;50.772;7.730;2023-05-17T08:27:03;16.48;48.29
67093;SHT31;54011;50.772;7.730;2023-05-17T08:29:29;17.12;47.30
67093;SHT31;54011;50.772;7.730;2023-05-17T08:31:54;17.27;45.88
67093;SHT31;54011;50.772;7.730;2023-05-17T08:34:20;16.26;46.58
67093;SHT31;54011;50.772;7.730;2023-05-17T08:36:46;17.44;45.12
67093;SHT31;54011;50.772;7.730;2023-05-17T08:39:12;17.85;44.85
67093;SHT31;54011;50.772;7.730;2023-05-17T08:41:38;19.20;43.00
67093;SHT31;54011;50.772;7.730;2023-05-17T08:44:04;19.75;43.05
67093;SHT31;54011;50.772;7.730;2023-05-17T08:46:34;19.65;41.08
67093;SHT31;54011;50.772;7.730;2023-05-17T08:49:02;19.48;39.72
67093;SHT31;54011;50.772;7.730;2023-05-17T08:51:31;19.97;39.53
67093;SHT31;54011;50.772;7.730;2023-05-17T08:53:57;20.32;40.37
67093;SHT31;54011;50.772;7.730;2023-05-17T08:56:24;19.10;39.28
67093;SHT31;54011;50.772;7.730;2023-05-17T08:58:52;20.55;38.41
67093;SHT31;54011;50.772;7.730;2023-05-17T09:01:19;20.22;39.04
67093;SHT31;54011;50.772;7.730;2023-05-17T09:03:47;21.04;37.30
67093;SHT31;54011;50.772;7.730;2023-05-17T09:06:15;20.94;38.24
67093;SHT31;54011;50.772;7.730;2023-05-17T09:08:43;20.96;38.48
67093;SHT31;54011;50.772;7.730;2023-05-17T09:11:09;20.27;38.34
67093;SHT31;54011;50.772;7.730;2023-05-17T09:13:36;20.06;39.67
67093;SHT31;54011;50.772;7.730;2023-05-17T09:16:01;19.35;39.82
67093;SHT31;54011;50.772;7.730;2023-05-17T09:18:31;18.80;41.47
67093;SHT31;54011;50.772;7.730;2023-05-17T09:21:01;19.30;41.63
67093;SHT31;54011;50.772;7.730;2023-05-17T09:23:31;20.67;39.64
67093;SHT31;54011;50.772;7.730;2023-05-17T09:26:06;21.02;38.50
67093;SHT31;54011;50.772;7.730;2023-05-17T09:28:40;20.67;38.11
67093;SHT31;54011;50.772;7.730;2023-05-17T09:31:07;20.41;38.69
67093;SHT31;54011;50.772;7.730;2023-05-17T09:33:34;20.02;38.71
67093;SHT31;54011;50.772;7.730;2023-05-17T09:38:40;20.53;37.66
67093;SHT31;54011;50.772;7.730;2023-05-17T09:41:05;20.50;36.83
67093;SHT31;54011;50.772;7.730;2023-05-17T09:43:32;19.99;38.32
67093;SHT31;54011;50.772;7.730;2023-05-17T09:45:58;18.90;39.81
67093;SHT31;54011;50.772;7.730;2023-05-17T09:48:25;19.64;38.75
67093;SHT31;54011;50.772;7.730;2023-05-17T09:50:52;19.65;38.93
67093;SHT31;54011;50.772;7.730;2023-05-17T09:53:24;20.85;37.77
67093;SHT31;54011;50.772;7.730;2023-05-17T09:55:52;18.80;40.84
67093;SHT31;54011;50.772;7.730;2023-05-17T09:58:18;17.36;43.11
67093;SHT31;54011;50.772;7.730;2023-05-17T10:00:43;18.89;41.47
67093;SHT31;54011;50.772;7.730;2023-05-17T10:03:12;19.36;40.51
67093;SHT31;54011;50.772;7.730;2023-05-17T10:05:41;19.10;40.16
67093;SHT31;54011;50.772;7.730;2023-05-17T10:08:09;20.57;38.29
67093;SHT31;54011;50.772;7.730;2023-05-17T10:10:38;20.13;39.14
67093;SHT31;54011;50.772;7.730;2023-05-17T10:13:04;21.36;38.21
67093;SHT31;54011;50.772;7.730;2023-05-17T10:15:32;22.59;35.83
67093;SHT31;54011;50.772;7.730;2023-05-17T10:17:59;22.85;34.79
67093;SHT31;54011;50.772;7.730;2023-05-17T10:20:26;22.45;35.51
67093;SHT31;54011;50.772;7.730;2023-05-17T10:22:53;21.35;35.55
67093;SHT31;54011;50.772;7.730;2023-05-17T10:25:20;21.39;37.30
67093;SHT31;54011;50.772;7.730;2023-05-17T10:27:48;21.47;37.08
67093;SHT31;54011;50.772;7.730;2023-05-17T10:30:15;22.18;36.84
67093;SHT31;54011;50.772;7.730;2023-05-17T10:32:44;23.57;34.33
67093;SHT31;54011;50.772;7.730;2023-05-17T10:35:13;23.88;35.27
67093;SHT31;54011;50.772;7.730;2023-05-17T10:37:40;24.63;34.47
67093;SHT31;54011;50.772;7.730;2023-05-17T10:40:08;24.15;33.64
67093;SHT31;54011;50.772;7.730;2023-05-17T10:42:48;24.16;32.84
67093;SHT31;54011;50.772;7.730;2023-05-17T10:45:20;23.86;33.48
67093;SHT31;54011;50.772;7.730;2023-05-17T10:47:46;21.82;36.05
67093;SHT31;54011;50.772;7.730;2023-05-17T10:50:20;21.47;36.02
67093;SHT31;54011;50.772;7.730;2023-05-17T10:52:47;22.11;34.76
67093;SHT31;54011;50.772;7.730;2023-05-17T10:55:17;23.39;34.26
67093;SHT31;54011;50.772;7.730;2023-05-17T10:57:43;23.24;33.03
67093;SHT31;54011;50.772;7.730;2023-05-17T11:00:18;23.06;33.87
67093;SHT31;54011;50.772;7.730;2023-05-17T11:02:44;24.33;33.26
67093;SHT31;54011;50.772;7.730;2023-05-17T11:05:22;24.08;31.92
67093;SHT31;54011;50.772;7.730;2023-05-17T11:07:49;24.55;31.09
67093;SHT31;54011;50.772;7.730;2023-05-17T11:10:14;23.78;31.68
67093;SHT31;54011;50.772;7.730;2023-05-17T11:12:45;22.55;33.10
67093;SHT31;54011;50.772;7.730;2023-05-17T11:15:15;22.92;33.79
67093;SHT31;54011;50.772;7.730;2023-05-17T11:22:40;24.79;31.86
67093;SHT31;54011;50.772;7.730;2023-05-17T11:25:11;24.42;31.98
67093;SHT31;54011;50.772;7.730;2023-05-17T11:27:40;24.18;33.31
67093;SHT31;54011;50.772;7.730;2023-05-17T11:30:27;23.61;32.50
67093;SHT31;54011;50.772;7.730;2023-05-17T11:32:58;23.88;32.73
67093;SHT31;54011;50.772;7.730;2023-05-17T11:35:38;23.77;32.48
67093;SHT31;54011;50.772;7.730;2023-05-17T11:38:25;22.81;32.71
67093;SHT31;54011;50.772;7.730;2023-05-17T11:40:53;24.28;30.31
67093;SHT31;54011;50.772;7.730;2023-05-17T11:43:21;24.55;31.56
67093;SHT31;54011;50.772;7.730;2023-05-17T11:45:53;25.31;30.62
67093;SHT31;54011;50.772;7.730;2023-05-17T11:48:21;26.12;29.14
67093;SHT31;54011;50.772;7.730;2023-05-17T11:50:48;26.38;29.12
67093;SHT31;54011;50.772;7.730;2023-05-17T11:53:16;25.99;29.56
67093;SHT31;54011;50.772;7.730;2023-05-17T11:55:48;25.51;28.77
67093;SHT31;54011;50.772;7.730;2023-05-17T11:58:19;24.40;29.80
67093;SHT31;54011;50.772;7.730;2023-05-17T12:00:51;22.61;33.43
67093;SHT31;54011;50.772;7.730;2023-05-17T12:05:47;23.06;32.24
67093;SHT31;54011;50.772;7.730;2023-05-17T12:08:18;24.63;33.16
67093;SHT31;54011;50.772;7.730;2023-05-17T12:10:50;25.79;31.52
67093;SHT31;54011;50.772;7.730;2023-05-17T12:13:17;26.13;29.18
67093;SHT31;54011;50.772;7.730;2023-05-17T12:15:44;24.29;30.79
67093;SHT31;54011;50.772;7.730;2023-05-17T12:18:10;26.27;29.96
67093;SHT31;54011;50.772;7.730;2023-05-17T12:20:36;26.60;29.76
67093;SHT31;54011;50.772;7.730;2023-05-17T12:23:03;25.76;31.70
67093;SHT31;54011;50.772;7.730;2023-05-17T12:25:29;26.85;30.49
67093;SHT31;54011;50.772;7.730;2023-05-17T12:28:17;24.56;29.99
67093;SHT31;54011;50.772;7.730;2023-05-17T12:31:13;23.41;30.98
67093;SHT31;54011;50.772;7.730;2023-05-17T12:33:42;25.38;29.96
67093;SHT31;54011;50.772;7.730;2023-05-17T12:36:11;25.80;30.93
67093;SHT31;54011;50.772;7.730;2023-05-17T12:38:40;23.84;30.93
67093;SHT31;54011;50.772;7.730;2023-05-17T12:41:07;24.77;30.53
67093;SHT31;54011;50.772;7.730;2023-05-17T12:43:36;24.81;30.64
67093;SHT31;54011;50.772;7.730;2023-05-17T12:46:08;26.68;30.58
67093;SHT31;54011;50.772;7.730;2023-05-17T12:48:35;26.33;28.01
67093;SHT31;54011;50.772;7.730;2023-05-17T12:51:16;27.00;28.98
67093;SHT31;54011;50.772;7.730;2023-05-17T12:53:55;27.23;27.94
67093;SHT31;54011;50.772;7.730;2023-05-17T12:56:28;26.43;31.02
67093;SHT31;54011;50.772;7.730;2023-05-17T13:01:46;25.21;30.43
67093;SHT31;54011;50.772;7.730;2023-05-17T13:04:14;26.60;29.17
67093;SHT31;54011;50.772;7.730;2023-05-17T13:06:51;27.19;29.11
67093;SHT31;54011;50.772;7.730;2023-05-17T13:09:18;25.83;29.50
67093;SHT31;54011;50.772;7.730;2023-05-17T13:14:42;26.31;30.01
67093;SHT31;54011;50.772;7.730;2023-05-17T13:17:10;27.64;30.20
67093;SHT31;54011;50.772;7.730;2023-05-17T13:19:37;26.07;27.79
67093;SHT31;54011;50.772;7.730;2023-05-17T13:22:04;25.83;28.32
67093;SHT31;54011;50.772;7.730;2023-05-17T13:24:51;25.63;29.19
67093;SHT31;54011;50.772;7.730;2023-05-17T13:27:17;26.00;29.16
67093;SHT31;54011;50.772;7.730;2023-05-17T13:29:43;26.38;29.78
67093;SHT31;54011;50.772;7.730;2023-05-17T13:32:10;26.01;30.03
67093;SHT31;54011;50.772;7.730;2023-05-17T13:34:38;24.66;30.58
67093;SHT31;54011;50.772;7.730;2023-05-17T13:37:04;26.43;32.75
67093;SHT31;54011;50.772;7.730;2023-05-17T13:39:30;28.08;29.36
67093;SHT31;54011;50.772;7.730;2023-05-17T13:41:56;27.87;28.20
67093;SHT31;54011;50.772;7.730;2023-05-17T13:44:21;26.10;27.59
67093;SHT31;54011;50.772;7.730;2023-05-17T13:46:47;25.07;30.21
67093;SHT31;54011;50.772;7.730;2023-05-17T13:49:12;25.78;29.59
67093;SHT31;54011;50.772;7.730;2023-05-17T13:51:38;25.18;31.43
67093;SHT31;54011;50.772;7.730;2023-05-17T13:54:05;26.81;31.22
67093;SHT31;54011;50.772;7.730;2023-05-17T13:56:30;25.80;28.75
67093;SHT31;54011;50.772;7.730;2023-05-17T13:58:56;27.50;28.65
67093;SHT31;54011;50.772;7.730;2023-05-17T14:01:21;27.35;29.09
67093;SHT31;54011;50.772;7.730;2023-05-17T14:03:46;26.33;28.73
67093;SHT31;54011;50.772;7.730;2023-05-17T14:06:14;24.95;29.69
67093;SHT31;54011;50.772;7.730;2023-05-17T14:08:40;25.90;31.38
67093;SHT31;54011;50.772;7.730;2023-05-17T14:11:05;24.76;32.16
67093;SHT31;54011;50.772;7.730;2023-05-17T14:13:31;24.37;32.36
67093;SHT31;54011;50.772;7.730;2023-05-17T14:15:56;26.48;29.57
67093;SHT31;54011;50.772;7.730;2023-05-17T14:18:22;26.58;29.59
67093;SHT31;54011;50.772;7.730;2023-05-17T14:20:47;26.61;29.93
67093;SHT31;54011;50.772;7.730;2023-05-17T14:23:13;25.62;30.36
67093;SHT31;54011;50.772;7.730;2023-05-17T14:25:38;26.17;29.05
67093;SHT31;54011;50.772;7.730;2023-05-17T14:28:05;26.96;30.60
67093;SHT31;54011;50.772;7.730;2023-05-17T14:30:30;24.91;30.71
67093;SHT31;54011;50.772;7.730;2023-05-17T14:32:56;25.59;31.03
67093;SHT31;54011;50.772;7.730;2023-05-17T14:35:23;25.38;32.39
67093;SHT31;54011;50.772;7.730;2023-05-17T14:37:48;25.03;32.65
67093;SHT31;54011;50.772;7.730;2023-05-17T14:40:14;24.90;31.26
67093;SHT31;54011;50.772;7.730;2023-05-17T14:42:39;25.07;30.14
67093;SHT31;54011;50.772;7.730;2023-05-17T14:45:08;25.43;29.55
67093;SHT31;54011;50.772;7.730;2023-05-17T14:47:34;25.43;30.78
67093;SHT31;54011;50.772;7.730;2023-05-17T14:49:59;26.26;28.29
67093;SHT31;54011;50.772;7.730;2023-05-17T14:52:25;26.47;28.47
67093;SHT31;54011;50.772;7.730;2023-05-17T14:54:50;27.37;29.19
67093;SHT31;54011;50.772;7.730;2023-05-17T14:57:16;28.58;28.25
67093;SHT31;54011;50.772;7.730;2023-05-17T14:59:42;28.44;27.83
67093;SHT31;54011;50.772;7.730;2023-05-17T15:02:09;26.20;29.23
67093;SHT31;54011;50.772;7.730;2023-05-17T15:04:35;27.10;29.09
67093;SHT31;54011;50.772;7.730;2023-05-17T15:07:01;29.67;25.83
67093;SHT31;54011;50.772;7.730;2023-05-17T15:09:27;28.65;26.17
67093;SHT31;54011;50.772;7.730;2023-05-17T15:11:55;26.94;27.50
67093;SHT31;54011;50.772;7.730;2023-05-17T15:14:20;24.87;29.28
67093;SHT31;54011;50.772;7.730;2023-05-17T15:16:48;25.88;30.42
67093;SHT31;54011;50.772;7.730;2023-05-17T15:19:14;25.46;28.76
67093;SHT31;54011;50.772;7.730;2023-05-17T15:21:43;27.81;28.78
67093;SHT31;54011;50.772;7.730;2023-05-17T15:24:09;28.45;28.80
67093;SHT31;54011;50.772;7.730;2023-05-17T15:26:35;26.48;28.91
67093;SHT31;54011;50.772;7.730;2023-05-17T15:29:01;27.43;28.83
67093;SHT31;54011;50.772;7.730;2023-05-17T15:31:27;27.87;28.93
67093;SHT31;54011;50.772;7.730;2023-05-17T15:33:56;28.70;26.96
67093;SHT31;54011;50.772;7.730;2023-05-17T15:36:23;28.93;25.62
67093;SHT31;54011;50.772;7.730;2023-05-17T15:38:50;27.02;27.97
67093;SHT31;54011;50.772;7.730;2023-05-17T15:41:17;25.88;30.06
67093;SHT31;54011;50.772;7.730;2023-05-17T15:43:47;25.03;31.66
67093;SHT31;54011;50.772;7.730;2023-05-17T15:46:12;26.31;32.13
67093;SHT31;54011;50.772;7.730;2023-05-17T15:48:38;26.55;30.99
67093;SHT31;54011;50.772;7.730;2023-05-17T15:51:05;24.33;31.87
67093;SHT31;54011;50.772;7.730;2023-05-17T15:53:32;23.44;32.72
67093;SHT31;54011;50.772;7.730;2023-05-17T15:55:57;25.68;31.67
67093;SHT31;54011;50.772;7.730;2023-05-17T15:58:24;26.54;31.17